sensor_id;sensor_type;location;lat;lon;timestamp;P1;durP1;ratioP1;P2;durP2;ratioP2
18689;SDS011;9782;52.930;15.562;2023-01-28T00:00:01;5.63;;;2.03;;
18689;SDS011;9782;52.930;15.562;2023-01-28T00:02:29;6.17;;;2.60;;
18689;SDS011;9782;52.930;15.562;2023-01-28T00:04:56;2.43;;;1.67;;
18689;SDS011;9782;52.930;15.562;2023-01-28T00:07:22;6.50;;;2.20;;
18689;SDS011;9782;52.930;15.562;2023-01-28T00:09:50;5.87;;;2.83;;
18689;SDS011;9782;52.930;15.562;2023-01-28T00:12:16;6.17;;;2.47;;
18689;SDS011;9782;52.930;15.562;2023-01-28T00:14:43;4.43;;;2.53;;
18689;SDS011;9782;52.930;15.562;2023-01-28T00:17:11;7.33;;;3.00;;
18689;SDS011;9782;52.930;15.562;2023-01-28T00:19:40;4.93;;;2.40;;
18689;SDS011;9782;52.930;15.562;2023-01-28T00:22:08;6.77;;;2.50;;
18689;SDS011;9782;52.930;15.562;2023-01-28T00:24:35;3.80;;;2.10;;
18689;SDS011;9782;52.930;15.562;2023-01-28T00:27:02;2.93;;;2.27;;
18689;SDS011;9782;52.930;15.562;2023-01-28T00:29:29;4.33;;;2.30;;
18689;SDS011;9782;52.930;15.562;2023-01-28T00:31:56;3.60;;;2.30;;
18689;SDS011;9782;52.930;15.562;2023-01-28T00:34:22;4.93;;;2.50;;
18689;SDS011;9782;52.930;15.562;2023-01-28T00:36:51;5.97;;;2.13;;
18689;SDS011;9782;52.930;15.562;2023-01-28T00:39:21;3.70;;;2.30;;
18689;SDS011;9782;52.930;15.562;2023-01-28T00:41:49;4.10;;;2.70;;
18689;SDS011;9782;52.930;15.562;2023-01-28T00:44:16;4.50;;;2.17;;
18689;SDS011;9782;52.930;15.562;2023-01-28T00:46:44;4.03;;;2.33;;
18689;SDS011;9782;52.930;15.562;2023-01-28T00:49:11;4.27;;;2.23;;
18689;SDS011;9782;52.930;15.562;2023-01-28T00:51:37;6.03;;;2.33;;
18689;SDS011;9782;52.930;15.562;2023-01-28T00:54:06;3.50;;;2.27;;
18689;SDS011;9782;52.930;15.562;2023-01-28T07:13:43;5.83;;;3.00;;
18689;SDS011;9782;52.930;15.562;2023-01-28T07:16:11;8.80;;;4.77;;
18689;SDS011;9782;52.930;15.562;2023-01-28T07:18:38;7.97;;;3.07;;
18689;SDS011;9782;52.930;15.562;2023-01-28T07:21:05;3.27;;;1.60;;
18689;SDS011;9782;52.930;15.562;2023-01-28T07:23:32;6.67;;;2.97;;
18689;SDS011;9782;52.930;15.562;2023-01-28T07:26:02;1.63;;;0.93;;
18689;SDS011;9782;52.930;15.562;2023-01-28T07:28:30;1.67;;;0.90;;
18689;SDS011;9782;52.930;15.562;2023-01-28T07:30:58;39.53;;;9.27;;
18689;SDS011;9782;52.930;15.562;2023-01-28T07:33:25;6.00;;;1.90;;
18689;SDS011;9782;52.930;15.562;2023-01-28T07:35:52;4.27;;;1.27;;
18689;SDS011;9782;52.930;15.562;2023-01-28T07:38:19;4.63;;;1.73;;
18689;SDS011;9782;52.930;15.562;2023-01-28T07:40:46;1.53;;;0.97;;
18689;SDS011;9782;52.930;15.562;2023-01-28T07:43:13;30.40;;;8.87;;
18689;SDS011;9782;52.930;15.562;2023-01-28T07:45:40;17.60;;;5.40;;
18689;SDS011;9782;52.930;15.562;2023-01-28T07:48:09;13.30;;;4.57;;
18689;SDS011;9782;52.930;15.562;2023-01-28T07:50:38;9.93;;;4.13;;
18689;SDS011;9782;52.930;15.562;2023-01-28T07:53:06;17.93;;;7.93;;
18689;SDS011;9782;52.930;15.562;2023-01-28T07:55:35;46.80;;;17.10;;
18689;SDS011;9782;52.930;15.562;2023-01-28T07:58:03;8.40;;;4.03;;
18689;SDS011;9782;52.930;15.562;2023-01-28T08:00:33;9.30;;;4.73;;
18689;SDS011;9782;52.930;15.562;2023-01-28T08:03:02;6.93;;;2.73;;
18689;SDS011;9782;52.930;15.562;2023-01-28T08:05:35;11.30;;;3.10;;
18689;SDS011;9782;52.930;15.562;2023-01-28T08:08:05;12.90;;;4.37;;
18689;SDS011;9782;52.930;15.562;2023-01-28T08:10:33;38.50;;;15.03;;
18689;SDS011;9782;52.930;15.562;2023-01-28T08:13:00;17.80;;;8.33;;
18689;SDS011;9782;52.930;15.562;2023-01-28T08:15:27;26.50;;;11.40;;
18689;SDS011;9782;52.930;15.562;2023-01-28T08:17:55;24.03;;;10.57;;
18689;SDS011;9782;52.930;15.562;2023-01-28T08:20:24;22.60;;;10.17;;
18689;SDS011;9782;52.930;15.562;2023-01-28T08:23:02;18.70;;;9.40;;
18689;SDS011;9782;52.930;15.562;2023-01-28T08:25:30;20.17;;;11.53;;
18689;SDS011;9782;52.930;15.562;2023-01-28T08:27:58;25.00;;;12.93;;
18689;SDS011;9782;52.930;15.562;2023-01-28T08:30:25;24.90;;;12.27;;
18689;SDS011;9782;52.930;15.562;2023-01-28T08:32:54;30.13;;;16.63;;
18689;SDS011;9782;52.930;15.562;2023-01-28T08:35:21;15.20;;;8.03;;
18689;SDS011;9782;52.930;15.562;2023-01-28T08:37:49;15.30;;;8.67;;
18689;SDS011;9782;52.930;15.562;2023-01-28T08:40:18;9.17;;;3.90;;
18689;SDS011;9782;52.930;15.562;2023-01-28T08:42:46;6.43;;;3.33;;
18689;SDS011;9782;52.930;15.562;2023-01-28T08:45:13;6.30;;;3.70;;
18689;SDS011;9782;52.930;15.562;2023-01-28T08:47:46;3.90;;;2.00;;
18689;SDS011;9782;52.930;15.562;2023-01-28T08:50:14;9.23;;;5.03;;
18689;SDS011;9782;52.930;15.562;2023-01-28T08:52:41;20.47;;;10.07;;
18689;SDS011;9782;52.930;15.562;2023-01-28T08:55:08;25.30;;;14.53;;
18689;SDS011;9782;52.930;15.562;2023-01-28T08:57:37;53.53;;;25.97;;
18689;SDS011;9782;52.930;15.562;2023-01-28T09:00:05;90.37;;;37.47;;
18689;SDS011;9782;52.930;15.562;2023-01-28T09:02:34;82.70;;;35.97;;
18689;SDS011;9782;52.930;15.562;2023-01-28T09:05:01;45.83;;;21.63;;
18689;SDS011;9782;52.930;15.562;2023-01-28T09:07:29;35.33;;;15.20;;
18689;SDS011;9782;52.930;15.562;2023-01-28T09:09:56;21.47;;;10.40;;
18689;SDS011;9782;52.930;15.562;2023-01-28T09:12:23;31.30;;;13.77;;
18689;SDS011;9782;52.930;15.562;2023-01-28T09:14:52;9.93;;;4.80;;
18689;SDS011;9782;52.930;15.562;2023-01-28T09:17:43;6.37;;;3.53;;
18689;SDS011;9782;52.930;15.562;2023-01-28T09:20:10;14.23;;;6.93;;
18689;SDS011;9782;52.930;15.562;2023-01-28T09:22:37;12.83;;;5.57;;
18689;SDS011;9782;52.930;15.562;2023-01-28T09:25:05;45.13;;;19.90;;
18689;SDS011;9782;52.930;15.562;2023-01-28T09:27:33;12.20;;;6.00;;
18689;SDS011;9782;52.930;15.562;2023-01-28T09:30:01;11.13;;;5.03;;
18689;SDS011;9782;52.930;15.562;2023-01-28T09:32:28;3.40;;;1.87;;
18689;SDS011;9782;52.930;15.562;2023-01-28T09:34:55;7.87;;;4.17;;
18689;SDS011;9782;52.930;15.562;2023-01-28T09:37:22;5.70;;;2.47;;
18689;SDS011;9782;52.930;15.562;2023-01-28T09:39:49;14.47;;;6.10;;
18689;SDS011;9782;52.930;15.562;2023-01-28T09:42:21;6.00;;;2.90;;
18689;SDS011;9782;52.930;15.562;2023-01-28T09:45:02;10.17;;;5.87;;
18689;SDS011;9782;52.930;15.562;2023-01-28T09:47:38;5.50;;;2.97;;
18689;SDS011;9782;52.930;15.562;2023-01-28T09:50:08;6.63;;;3.47;;
18689;SDS011;9782;52.930;15.562;2023-01-28T09:52:40;5.77;;;2.47;;
18689;SDS011;9782;52.930;15.562;2023-01-28T09:55:13;10.97;;;6.30;;
18689;SDS011;9782;52.930;15.562;2023-01-28T09:57:46;16.70;;;8.17;;
18689;SDS011;9782;52.930;15.562;2023-01-28T10:00:18;34.77;;;16.50;;
18689;SDS011;9782;52.930;15.562;2023-01-28T10:02:54;18.47;;;8.87;;
18689;SDS011;9782;52.930;15.562;2023-01-28T10:05:32;14.90;;;7.90;;
18689;SDS011;9782;52.930;15.562;2023-01-28T10:08:07;16.53;;;8.00;;
18689;SDS011;9782;52.930;15.562;2023-01-28T10:10:44;10.57;;;4.43;;
18689;SDS011;9782;52.930;15.562;2023-01-28T10:13:19;10.93;;;4.90;;
18689;SDS011;9782;52.930;15.562;2023-01-28T10:16:01;10.33;;;5.07;;
18689;SDS011;9782;52.930;15.562;2023-01-28T10:18:35;6.43;;;3.03;;
18689;SDS011;9782;52.930;15.562;2023-01-28T10:21:10;24.17;;;13.73;;
18689;SDS011;9782;52.930;15.562;2023-01-28T10:23:45;7.47;;;4.63;;
18689;SDS011;9782;52.930;15.562;2023-01-28T10:26:21;7.40;;;4.13;;
18689;SDS011;9782;52.930;15.562;2023-01-28T10:28:52;3.87;;;2.83;;
18689;SDS011;9782;52.930;15.562;2023-01-28T10:31:24;25.17;;;10.37;;
18689;SDS011;9782;52.930;15.562;2023-01-28T10:33:57;76.63;;;25.27;;
18689;SDS011;9782;52.930;15.562;2023-01-28T10:36:25;35.07;;;12.93;;
18689;SDS011;9782;52.930;15.562;2023-01-28T10:38:52;37.97;;;14.20;;
18689;SDS011;9782;52.930;15.562;2023-01-28T10:41:19;21.33;;;8.00;;
18689;SDS011;9782;52.930;15.562;2023-01-28T10:43:49;43.13;;;16.87;;
18689;SDS011;9782;52.930;15.562;2023-01-28T10:46:18;28.17;;;11.30;;
18689;SDS011;9782;52.930;15.562;2023-01-28T10:48:52;17.07;;;6.90;;
18689;SDS011;9782;52.930;15.562;2023-01-28T10:51:29;2.87;;;1.60;;
18689;SDS011;9782;52.930;15.562;2023-01-28T10:53:57;9.37;;;4.43;;
18689;SDS011;9782;52.930;15.562;2023-01-28T10:56:24;52.40;;;18.03;;
18689;SDS011;9782;52.930;15.562;2023-01-28T10:58:56;14.50;;;5.97;;
18689;SDS011;9782;52.930;15.562;2023-01-28T11:01:25;23.73;;;10.00;;
18689;SDS011;9782;52.930;15.562;2023-01-28T11:04:12;15.07;;;7.17;;
18689;SDS011;9782;52.930;15.562;2023-01-28T11:06:50;18.03;;;7.23;;
18689;SDS011;9782;52.930;15.562;2023-01-28T11:09:22;10.57;;;5.57;;
18689;SDS011;9782;52.930;15.562;2023-01-28T11:11:50;42.57;;;14.23;;
18689;SDS011;9782;52.930;15.562;2023-01-28T11:14:20;16.80;;;5.40;;
18689;SDS011;9782;52.930;15.562;2023-01-28T11:16:49;9.87;;;4.83;;
18689;SDS011;9782;52.930;15.562;2023-01-28T11:19:26;16.10;;;6.93;;
18689;SDS011;9782;52.930;15.562;2023-01-28T11:21:59;15.93;;;7.30;;
18689;SDS011;9782;52.930;15.562;2023-01-28T11:24:27;14.23;;;6.60;;
18689;SDS011;9782;52.930;15.562;2023-01-28T11:26:58;19.83;;;10.07;;
18689;SDS011;9782;52.930;15.562;2023-01-28T11:29:39;63.73;;;26.53;;
18689;SDS011;9782;52.930;15.562;2023-01-28T11:32:15;11.03;;;4.90;;
18689;SDS011;9782;52.930;15.562;2023-01-28T11:34:49;14.07;;;5.67;;
18689;SDS011;9782;52.930;15.562;2023-01-28T11:37:19;7.57;;;3.77;;
18689;SDS011;9782;52.930;15.562;2023-01-28T11:39:47;15.27;;;7.30;;
18689;SDS011;9782;52.930;15.562;2023-01-28T11:42:14;11.27;;;6.70;;
18689;SDS011;9782;52.930;15.562;2023-01-28T11:44:43;13.13;;;6.70;;
18689;SDS011;9782;52.930;15.562;2023-01-28T11:47:17;15.73;;;9.07;;
18689;SDS011;9782;52.930;15.562;2023-01-28T11:49:56;9.03;;;5.67;;
18689;SDS011;9782;52.930;15.562;2023-01-28T11:52:33;10.30;;;6.07;;
18689;SDS011;9782;52.930;15.562;2023-01-28T11:55:15;8.27;;;3.80;;
18689;SDS011;9782;52.930;15.562;2023-01-28T11:57:49;7.23;;;4.03;;
18689;SDS011;9782;52.930;15.562;2023-01-28T12:00:32;16.30;;;7.93;;
18689;SDS011;9782;52.930;15.562;2023-01-28T12:03:13;12.67;;;6.67;;
18689;SDS011;9782;52.930;15.562;2023-01-28T12:05:55;12.60;;;5.53;;
18689;SDS011;9782;52.930;15.562;2023-01-28T12:08:39;11.50;;;6.20;;
18689;SDS011;9782;52.930;15.562;2023-01-28T12:11:18;14.57;;;6.63;;
18689;SDS011;9782;52.930;15.562;2023-01-28T12:14:09;16.33;;;7.73;;
18689;SDS011;9782;52.930;15.562;2023-01-28T12:16:57;15.07;;;7.13;;
18689;SDS011;9782;52.930;15.562;2023-01-28T12:19:42;12.90;;;6.80;;
18689;SDS011;9782;52.930;15.562;2023-01-28T12:22:24;17.13;;;9.47;;
18689;SDS011;9782;52.930;15.562;2023-01-28T12:25:15;19.03;;;8.87;;
18689;SDS011;9782;52.930;15.562;2023-01-28T12:27:51;17.33;;;9.37;;
18689;SDS011;9782;52.930;15.562;2023-01-28T12:30:30;14.90;;;8.87;;
18689;SDS011;9782;52.930;15.562;2023-01-28T12:33:16;15.47;;;7.73;;
18689;SDS011;9782;52.930;15.562;2023-01-28T12:35:58;14.37;;;8.13;;
18689;SDS011;9782;52.930;15.562;2023-01-28T12:38:39;13.93;;;7.97;;
18689;SDS011;9782;52.930;15.562;2023-01-28T12:41:14;12.00;;;7.80;;
18689;SDS011;9782;52.930;15.562;2023-01-28T12:43:48;16.83;;;10.17;;
18689;SDS011;9782;52.930;15.562;2023-01-28T12:49:07;26.10;;;11.83;;
18689;SDS011;9782;52.930;15.562;2023-01-28T12:51:44;24.63;;;12.23;;
18689;SDS011;9782;52.930;15.562;2023-01-28T12:54:18;11.70;;;7.60;;
18689;SDS011;9782;52.930;15.562;2023-01-28T12:56:51;16.23;;;7.70;;
18689;SDS011;9782;52.930;15.562;2023-01-28T12:59:20;15.07;;;6.93;;
18689;SDS011;9782;52.930;15.562;2023-01-28T13:01:56;10.67;;;6.13;;
18689;SDS011;9782;52.930;15.562;2023-01-28T13:04:32;12.40;;;6.60;;
18689;SDS011;9782;52.930;15.562;2023-01-28T13:07:05;15.93;;;9.97;;
18689;SDS011;9782;52.930;15.562;2023-01-28T13:09:40;16.33;;;10.43;;
18689;SDS011;9782;52.930;15.562;2023-01-28T13:12:13;12.23;;;7.93;;
18689;SDS011;9782;52.930;15.562;2023-01-28T13:14:42;6.40;;;4.43;;
18689;SDS011;9782;52.930;15.562;2023-01-28T13:17:10;14.17;;;9.47;;
18689;SDS011;9782;52.930;15.562;2023-01-28T13:19:38;14.23;;;8.70;;
18689;SDS011;9782;52.930;15.562;2023-01-28T13:22:10;20.80;;;11.80;;
18689;SDS011;9782;52.930;15.562;2023-01-28T13:24:40;15.60;;;9.87;;
18689;SDS011;9782;52.930;15.562;2023-01-28T13:27:12;18.20;;;11.03;;
18689;SDS011;9782;52.930;15.562;2023-01-28T13:29:47;38.60;;;19.47;;
18689;SDS011;9782;52.930;15.562;2023-01-28T13:32:29;25.43;;;13.40;;
18689;SDS011;9782;52.930;15.562;2023-01-28T13:34:59;15.50;;;7.77;;
18689;SDS011;9782;52.930;15.562;2023-01-28T13:37:30;22.70;;;12.23;;
18689;SDS011;9782;52.930;15.562;2023-01-28T13:42:58;20.77;;;10.77;;
18689;SDS011;9782;52.930;15.562;2023-01-28T13:45:27;26.23;;;12.83;;
18689;SDS011;9782;52.930;15.562;2023-01-28T13:47:56;19.50;;;10.30;;
18689;SDS011;9782;52.930;15.562;2023-01-28T13:50:32;21.10;;;8.67;;
18689;SDS011;9782;52.930;15.562;2023-01-28T13:53:06;19.60;;;11.43;;
18689;SDS011;9782;52.930;15.562;2023-01-28T13:55:47;20.83;;;10.00;;
18689;SDS011;9782;52.930;15.562;2023-01-28T13:58:26;24.60;;;16.27;;
18689;SDS011;9782;52.930;15.562;2023-01-28T14:01:25;21.70;;;14.27;;
18689;SDS011;9782;52.930;15.562;2023-01-28T14:07:10;12.47;;;6.80;;
18689;SDS011;9782;52.930;15.562;2023-01-28T14:09:57;17.33;;;8.00;;
18689;SDS011;9782;52.930;15.562;2023-01-28T14:15:44;13.50;;;5.63;;
18689;SDS011;9782;52.930;15.562;2023-01-28T14:18:22;17.17;;;8.43;;
18689;SDS011;9782;52.930;15.562;2023-01-28T14:20:52;17.20;;;9.83;;
18689;SDS011;9782;52.930;15.562;2023-01-28T14:23:21;11.70;;;6.87;;
18689;SDS011;9782;52.930;15.562;2023-01-28T14:25:57;4.07;;;2.47;;
18689;SDS011;9782;52.930;15.562;2023-01-28T14:28:34;6.83;;;3.77;;
18689;SDS011;9782;52.930;15.562;2023-01-28T14:31:09;9.30;;;5.00;;
18689;SDS011;9782;52.930;15.562;2023-01-28T14:33:41;9.37;;;5.33;;
18689;SDS011;9782;52.930;15.562;2023-01-28T14:36:09;10.37;;;5.70;;
18689;SDS011;9782;52.930;15.562;2023-01-28T14:38:37;19.67;;;9.23;;
18689;SDS011;9782;52.930;15.562;2023-01-28T14:41:06;12.20;;;3.73;;
18689;SDS011;9782;52.930;15.562;2023-01-28T14:43:35;11.13;;;6.97;;
18689;SDS011;9782;52.930;15.562;2023-01-28T14:46:09;43.23;;;17.27;;
18689;SDS011;9782;52.930;15.562;2023-01-28T14:48:46;25.60;;;8.43;;
18689;SDS011;9782;52.930;15.562;2023-01-28T14:54:36;75.40;;;21.10;;
18689;SDS011;9782;52.930;15.562;2023-01-28T14:57:26;44.73;;;16.37;;
18689;SDS011;9782;52.930;15.562;2023-01-28T15:00:03;60.30;;;16.67;;
18689;SDS011;9782;52.930;15.562;2023-01-28T15:02:42;76.53;;;24.00;;
18689;SDS011;9782;52.930;15.562;2023-01-28T15:05:12;83.27;;;21.37;;
18689;SDS011;9782;52.930;15.562;2023-01-28T15:07:42;118.73;;;34.50;;
18689;SDS011;9782;52.930;15.562;2023-01-28T15:10:13;56.53;;;21.80;;
18689;SDS011;9782;52.930;15.562;2023-01-28T15:12:44;52.83;;;17.53;;
18689;SDS011;9782;52.930;15.562;2023-01-28T15:15:16;42.20;;;14.53;;
18689;SDS011;9782;52.930;15.562;2023-01-28T15:17:47;30.47;;;9.43;;
18689;SDS011;9782;52.930;15.562;2023-01-28T15:20:15;51.37;;;20.63;;
18689;SDS011;9782;52.930;15.562;2023-01-28T15:22:44;25.17;;;12.33;;
18689;SDS011;9782;52.930;15.562;2023-01-28T15:25:14;16.27;;;8.33;;
18689;SDS011;9782;52.930;15.562;2023-01-28T15:27:42;32.00;;;16.83;;
18689;SDS011;9782;52.930;15.562;2023-01-28T15:30:17;48.37;;;23.13;;
18689;SDS011;9782;52.930;15.562;2023-01-28T15:32:55;10.90;;;5.47;;
18689;SDS011;9782;52.930;15.562;2023-01-28T15:35:23;65.13;;;32.40;;
18689;SDS011;9782;52.930;15.562;2023-01-28T15:37:50;29.33;;;16.40;;
18689;SDS011;9782;52.930;15.562;2023-01-28T15:40:18;26.47;;;14.13;;
18689;SDS011;9782;52.930;15.562;2023-01-28T15:42:46;21.93;;;12.23;;
18689;SDS011;9782;52.930;15.562;2023-01-28T15:45:15;25.03;;;13.87;;
18689;SDS011;9782;52.930;15.562;2023-01-28T15:47:43;12.57;;;6.67;;
18689;SDS011;9782;52.930;15.562;2023-01-28T15:50:16;11.43;;;7.70;;
18689;SDS011;9782;52.930;15.562;2023-01-28T15:52:46;12.97;;;7.37;;
18689;SDS011;9782;52.930;15.562;2023-01-28T15:58:15;9.87;;;4.60;;
18689;SDS011;9782;52.930;15.562;2023-01-28T16:00:43;8.37;;;4.93;;
18689;SDS011;9782;52.930;15.562;2023-01-28T16:03:16;7.67;;;4.60;;
18689;SDS011;9782;52.930;15.562;2023-01-28T16:05:54;29.97;;;10.10;;
18689;SDS011;9782;52.930;15.562;2023-01-28T16:08:25;11.80;;;5.83;;
18689;SDS011;9782;52.930;15.562;2023-01-28T16:11:03;15.07;;;6.10;;
18689;SDS011;9782;52.930;15.562;2023-01-28T16:13:31;24.00;;;10.43;;
18689;SDS011;9782;52.930;15.562;2023-01-28T16:15:59;25.10;;;10.33;;
18689;SDS011;9782;52.930;15.562;2023-01-28T16:18:29;42.13;;;17.03;;
18689;SDS011;9782;52.930;15.562;2023-01-28T16:21:05;31.97;;;12.63;;
18689;SDS011;9782;52.930;15.562;2023-01-28T16:23:36;44.77;;;15.53;;
18689;SDS011;9782;52.930;15.562;2023-01-28T16:26:04;102.43;;;33.50;;
18689;SDS011;9782;52.930;15.562;2023-01-28T16:28:32;110.67;;;38.50;;
18689;SDS011;9782;52.930;15.562;2023-01-28T16:30:59;140.37;;;42.20;;
18689;SDS011;9782;52.930;15.562;2023-01-28T16:33:26;63.23;;;21.67;;
18689;SDS011;9782;52.930;15.562;2023-01-28T16:35:53;82.27;;;24.83;;
18689;SDS011;9782;52.930;15.562;2023-01-28T16:38:21;43.23;;;14.67;;
18689;SDS011;9782;52.930;15.562;2023-01-28T16:40:48;148.90;;;44.10;;
18689;SDS011;9782;52.930;15.562;2023-01-28T16:43:16;116.53;;;32.17;;
18689;SDS011;9782;52.930;15.562;2023-01-28T16:45:43;28.27;;;10.30;;
18689;SDS011;9782;52.930;15.562;2023-01-28T16:48:11;30.70;;;12.20;;
18689;SDS011;9782;52.930;15.562;2023-01-28T16:50:38;44.57;;;17.30;;
18689;SDS011;9782;52.930;15.562;2023-01-28T16:53:13;30.27;;;12.47;;
18689;SDS011;9782;52.930;15.562;2023-01-28T16:55:46;53.17;;;21.67;;
18689;SDS011;9782;52.930;15.562;2023-01-28T16:58:15;27.20;;;11.50;;
18689;SDS011;9782;52.930;15.562;2023-01-28T17:00:44;18.37;;;9.37;;
18689;SDS011;9782;52.930;15.562;2023-01-28T17:03:11;18.00;;;8.97;;
18689;SDS011;9782;52.930;15.562;2023-01-28T17:05:38;14.47;;;6.93;;
18689;SDS011;9782;52.930;15.562;2023-01-28T17:08:05;10.73;;;6.23;;
18689;SDS011;9782;52.930;15.562;2023-01-28T17:10:32;37.30;;;17.77;;
18689;SDS011;9782;52.930;15.562;2023-01-28T17:13:01;23.07;;;9.73;;
18689;SDS011;9782;52.930;15.562;2023-01-28T17:15:28;18.67;;;8.27;;
18689;SDS011;9782;52.930;15.562;2023-01-28T17:17:55;11.17;;;5.63;;
18689;SDS011;9782;52.930;15.562;2023-01-28T17:20:22;14.60;;;7.63;;
18689;SDS011;9782;52.930;15.562;2023-01-28T17:22:49;22.83;;;9.80;;
18689;SDS011;9782;52.930;15.562;2023-01-28T17:25:16;17.23;;;9.47;;
18689;SDS011;9782;52.930;15.562;2023-01-28T17:27:43;10.83;;;6.53;;
18689;SDS011;9782;52.930;15.562;2023-01-28T17:30:12;38.23;;;15.83;;
18689;SDS011;9782;52.930;15.562;2023-01-28T17:32:39;29.17;;;14.70;;
18689;SDS011;9782;52.930;15.562;2023-01-28T17:35:06;36.63;;;21.10;;
18689;SDS011;9782;52.930;15.562;2023-01-28T17:37:36;32.67;;;17.10;;
18689;SDS011;9782;52.930;15.562;2023-01-28T17:40:03;21.33;;;10.87;;
18689;SDS011;9782;52.930;15.562;2023-01-28T17:42:31;22.03;;;12.67;;
18689;SDS011;9782;52.930;15.562;2023-01-28T17:44:58;31.20;;;14.23;;
18689;SDS011;9782;52.930;15.562;2023-01-28T17:47:29;21.53;;;11.20;;
18689;SDS011;9782;52.930;15.562;2023-01-28T17:49:56;26.90;;;12.97;;
18689;SDS011;9782;52.930;15.562;2023-01-28T17:52:23;17.67;;;10.10;;
18689;SDS011;9782;52.930;15.562;2023-01-28T17:54:50;23.80;;;10.40;;
18689;SDS011;9782;52.930;15.562;2023-01-28T17:57:17;24.50;;;12.83;;
18689;SDS011;9782;52.930;15.562;2023-01-28T17:59:44;21.07;;;9.60;;
18689;SDS011;9782;52.930;15.562;2023-01-28T18:02:11;15.73;;;8.00;;
18689;SDS011;9782;52.930;15.562;2023-01-28T18:04:40;21.17;;;9.83;;
18689;SDS011;9782;52.930;15.562;2023-01-28T18:07:08;18.97;;;10.27;;
18689;SDS011;9782;52.930;15.562;2023-01-28T18:09:36;17.60;;;9.97;;
18689;SDS011;9782;52.930;15.562;2023-01-28T18:12:03;10.67;;;5.77;;
18689;SDS011;9782;52.930;15.562;2023-01-28T18:14:31;15.83;;;6.53;;
18689;SDS011;9782;52.930;15.562;2023-01-28T18:16:58;32.80;;;13.20;;
18689;SDS011;9782;52.930;15.562;2023-01-28T18:19:25;32.20;;;14.33;;
18689;SDS011;9782;52.930;15.562;2023-01-28T18:21:53;17.23;;;8.03;;
18689;SDS011;9782;52.930;15.562;2023-01-28T18:24:21;7.27;;;4.87;;
18689;SDS011;9782;52.930;15.562;2023-01-28T18:26:49;10.97;;;5.90;;
18689;SDS011;9782;52.930;15.562;2023-01-28T18:29:16;5.93;;;3.77;;
18689;SDS011;9782;52.930;15.562;2023-01-28T18:31:44;11.30;;;5.63;;
18689;SDS011;9782;52.930;15.562;2023-01-28T18:34:12;13.97;;;6.20;;
18689;SDS011;9782;52.930;15.562;2023-01-28T18:36:39;8.23;;;4.50;;
18689;SDS011;9782;52.930;15.562;2023-01-28T18:39:09;7.07;;;3.50;;
18689;SDS011;9782;52.930;15.562;2023-01-28T18:41:37;5.50;;;2.87;;
18689;SDS011;9782;52.930;15.562;2023-01-28T18:44:04;6.13;;;3.67;;
18689;SDS011;9782;52.930;15.562;2023-01-28T18:46:32;5.37;;;2.97;;
18689;SDS011;9782;52.930;15.562;2023-01-28T18:49:00;6.30;;;3.33;;
18689;SDS011;9782;52.930;15.562;2023-01-28T18:51:27;9.83;;;4.93;;
18689;SDS011;9782;52.930;15.562;2023-01-28T18:53:54;13.90;;;6.20;;
18689;SDS011;9782;52.930;15.562;2023-01-28T18:56:24;9.50;;;5.30;;
18689;SDS011;9782;52.930;15.562;2023-01-28T18:58:53;8.73;;;5.80;;
18689;SDS011;9782;52.930;15.562;2023-01-28T19:01:21;10.13;;;5.03;;
18689;SDS011;9782;52.930;15.562;2023-01-28T19:03:48;9.70;;;4.97;;
18689;SDS011;9782;52.930;15.562;2023-01-28T19:06:15;7.77;;;4.10;;
18689;SDS011;9782;52.930;15.562;2023-01-28T19:08:42;8.80;;;4.20;;
18689;SDS011;9782;52.930;15.562;2023-01-28T19:11:09;8.97;;;4.33;;
18689;SDS011;9782;52.930;15.562;2023-01-28T19:13:37;9.93;;;4.70;;
18689;SDS011;9782;52.930;15.562;2023-01-28T19:16:04;8.90;;;5.07;;
18689;SDS011;9782;52.930;15.562;2023-01-28T19:18:32;9.90;;;4.80;;
18689;SDS011;9782;52.930;15.562;2023-01-28T19:21:02;13.67;;;6.13;;
18689;SDS011;9782;52.930;15.562;2023-01-28T19:23:30;11.37;;;5.90;;
18689;SDS011;9782;52.930;15.562;2023-01-28T19:26:00;10.63;;;6.03;;
18689;SDS011;9782;52.930;15.562;2023-01-28T19:28:29;12.47;;;6.33;;
18689;SDS011;9782;52.930;15.562;2023-01-28T19:30:59;11.93;;;6.57;;
18689;SDS011;9782;52.930;15.562;2023-01-28T19:33:26;12.97;;;6.70;;
18689;SDS011;9782;52.930;15.562;2023-01-28T19:35:54;12.23;;;6.87;;
18689;SDS011;9782;52.930;15.562;2023-01-28T19:38:22;13.03;;;6.93;;
18689;SDS011;9782;52.930;15.562;2023-01-28T19:40:49;13.23;;;7.03;;
18689;SDS011;9782;52.930;15.562;2023-01-28T19:43:16;13.87;;;7.30;;
18689;SDS011;9782;52.930;15.562;2023-01-28T19:45:53;13.17;;;6.47;;
18689;SDS011;9782;52.930;15.562;2023-01-28T19:48:22;14.13;;;7.67;;
18689;SDS011;9782;52.930;15.562;2023-01-28T19:50:49;12.90;;;6.83;;
18689;SDS011;9782;52.930;15.562;2023-01-28T19:53:16;15.07;;;7.17;;
18689;SDS011;9782;52.930;15.562;2023-01-28T19:55:44;14.30;;;7.67;;
18689;SDS011;9782;52.930;15.562;2023-01-28T19:58:12;18.43;;;8.10;;
18689;SDS011;9782;52.930;15.562;2023-01-28T20:00:39;20.37;;;11.17;;
18689;SDS011;9782;52.930;15.562;2023-01-28T20:03:07;19.77;;;12.03;;
18689;SDS011;9782;52.930;15.562;2023-01-28T20:05:36;15.67;;;9.50;;
18689;SDS011;9782;52.930;15.562;2023-01-28T20:08:03;14.73;;;8.73;;
18689;SDS011;9782;52.930;15.562;2023-01-28T20:10:31;11.90;;;7.40;;
18689;SDS011;9782;52.930;15.562;2023-01-28T20:12:58;9.90;;;5.67;;
18689;SDS011;9782;52.930;15.562;2023-01-28T20:15:25;7.90;;;4.80;;
18689;SDS011;9782;52.930;15.562;2023-01-28T20:17:55;8.70;;;5.10;;
18689;SDS011;9782;52.930;15.562;2023-01-28T20:20:22;9.20;;;5.33;;
18689;SDS011;9782;52.930;15.562;2023-01-28T20:22:51;8.27;;;4.77;;
18689;SDS011;9782;52.930;15.562;2023-01-28T20:25:18;6.57;;;3.90;;
18689;SDS011;9782;52.930;15.562;2023-01-28T20:27:45;8.33;;;4.33;;
18689;SDS011;9782;52.930;15.562;2023-01-28T20:30:13;8.67;;;4.43;;
18689;SDS011;9782;52.930;15.562;2023-01-28T20:32:40;7.43;;;4.00;;
18689;SDS011;9782;52.930;15.562;2023-01-28T20:35:08;6.37;;;3.90;;
18689;SDS011;9782;52.930;15.562;2023-01-28T20:37:35;8.53;;;3.93;;
18689;SDS011;9782;52.930;15.562;2023-01-28T20:40:06;8.53;;;4.60;;
18689;SDS011;9782;52.930;15.562;2023-01-28T20:42:34;10.23;;;4.30;;
18689;SDS011;9782;52.930;15.562;2023-01-28T20:45:02;6.43;;;3.90;;
18689;SDS011;9782;52.930;15.562;2023-01-28T20:47:29;6.47;;;3.13;;
18689;SDS011;9782;52.930;15.562;2023-01-28T20:49:56;6.27;;;3.50;;
18689;SDS011;9782;52.930;15.562;2023-01-28T20:52:23;9.13;;;5.73;;
18689;SDS011;9782;52.930;15.562;2023-01-28T20:54:50;8.93;;;4.47;;
18689;SDS011;9782;52.930;15.562;2023-01-28T20:57:21;9.40;;;5.70;;
18689;SDS011;9782;52.930;15.562;2023-01-28T20:59:48;6.80;;;3.67;;
18689;SDS011;9782;52.930;15.562;2023-01-28T21:02:16;6.03;;;3.30;;
18689;SDS011;9782;52.930;15.562;2023-01-28T21:04:43;6.43;;;3.47;;
18689;SDS011;9782;52.930;15.562;2023-01-28T21:07:10;7.73;;;3.47;;
18689;SDS011;9782;52.930;15.562;2023-01-28T21:09:37;5.23;;;3.27;;
18689;SDS011;9782;52.930;15.562;2023-01-28T21:12:05;5.93;;;3.20;;
18689;SDS011;9782;52.930;15.562;2023-01-28T21:14:34;4.00;;;2.90;;
18689;SDS011;9782;52.930;15.562;2023-01-28T21:17:01;6.20;;;2.80;;
18689;SDS011;9782;52.930;15.562;2023-01-28T21:19:28;5.20;;;2.80;;
18689;SDS011;9782;52.930;15.562;2023-01-28T21:21:55;3.97;;;2.87;;
18689;SDS011;9782;52.930;15.562;2023-01-28T21:24:22;15.93;;;7.17;;
18689;SDS011;9782;52.930;15.562;2023-01-28T21:26:49;18.67;;;8.47;;
18689;SDS011;9782;52.930;15.562;2023-01-28T21:29:16;12.00;;;5.57;;